Time;durP1;ratioP1;P1;durP2;ratioP2;P2;SDS_P1;SDS_P2;PMS_P1;PMS_P2;Temp;Humidity;BMP_temperature;BMP_pressure;BME280_temperature;BME280_humidity;BME280_pressure;Samples;Min_cycle;Max_cycle;Signal;HPM_P1;HPM_P2
2022/08/21 00:01:54;;;;;;;111.10;49.13;;;;;;;-144.48;100.00;62369.91;5060117;28;20166;-68
2022/08/21 00:04:20;;;;;;;118.00;49.78;;;;;;;-144.48;100.00;62369.91;5062684;28;20104;-69
2022/08/21 00:06:45;;;;;;;102.05;44.22;;;;;;;-144.48;100.00;62369.91;5069177;28;20028;-66
2022/08/21 00:09:11;;;;;;;97.95;45.33;;;;;;;-144.48;100.00;62369.91;5070994;28;20247;-68
2022/08/21 00:11:37;;;;;;;107.55;48.15;;;;;;;-144.48;100.00;62369.91;5070538;28;20046;-67
2022/08/21 00:14:05;;;;;;;104.50;48.00;;;;;;;-144.48;100.00;62369.91;5072138;28;20412;-65
2022/08/21 00:16:32;;;;;;;105.70;48.80;;;;;;;-144.48;100.00;62369.91;5076340;28;20081;-67
2022/08/21 00:18:57;;;;;;;89.10;43.05;;;;;;;-144.48;100.00;62369.91;5080621;28;20117;-68
2022/08/21 00:21:24;;;;;;;100.07;45.75;;;;;;;-144.48;100.00;62369.91;5086353;28;20513;-68
2022/08/21 00:23:50;;;;;;;96.18;41.75;;;;;;;-144.48;100.00;62369.91;5072196;28;20041;-69
2022/08/21 00:26:15;;;;;;;88.40;41.63;;;;;;;-144.48;100.00;62369.91;5080378;28;20361;-68
2022/08/21 00:28:41;;;;;;;89.90;40.75;;;;;;;-144.48;100.00;62369.91;5071714;28;20737;-68
2022/08/21 00:31:06;;;;;;;79.55;38.38;;;;;;;-144.48;100.00;62369.91;5071609;28;20051;-67
2022/08/21 00:33:32;;;;;;;79.93;38.90;;;;;;;-144.48;100.00;62369.91;5053920;28;20028;-67
2022/08/21 00:35:58;;;;;;;71.10;37.47;;;;;;;-144.48;100.00;62369.91;5053594;28;20475;-69
2022/08/21 00:38:23;;;;;;;69.63;35.45;;;;;;;-144.48;100.00;62369.91;5053304;28;20047;-66
2022/08/21 00:40:52;;;;;;;76.45;36.97;;;;;;;-144.48;100.00;62369.91;5074408;28;20114;-69
2022/08/21 00:43:21;;;;;;;80.07;37.85;;;;;;;-144.48;100.00;62369.91;5073621;22;20502;-69
2022/08/21 00:45:47;;;;;;;;;;;;;;;-144.48;100.00;62369.91;5066538;28;20016;-72
2022/08/21 00:48:12;;;;;;;75.47;35.65;;;;;;;-144.48;100.00;62369.91;5052365;28;19962;-73
2022/08/21 00:50:44;;;;;;;71.07;35.35;;;;;;;-144.48;100.00;62369.91;5036243;28;20059;-68
2022/08/21 00:53:11;;;;;;;78.25;38.13;;;;;;;-144.48;100.00;62369.91;5049743;28;20092;-67
2022/08/21 00:55:37;;;;;;;77.38;36.65;;;;;;;-144.48;100.00;62369.91;5052696;28;20505;-71
2022/08/21 00:58:07;;;;;;;79.47;37.60;;;;;;;-144.48;100.00;62369.91;5065277;28;20024;-71
2022/08/21 01:00:38;;;;;;;81.57;39.78;;;;;;;-144.48;100.00;62369.91;5090649;28;20031;-69
2022/08/21 01:03:09;;;;;;;82.65;36.75;;;;;;;-144.48;100.00;62369.91;5091255;28;20065;-69
2022/08/21 01:05:35;;;;;;;70.90;35.47;;;;;;;-144.48;100.00;62369.91;5080315;28;20020;-70
2022/08/21 01:08:00;;;;;;;73.70;35.70;;;;;;;-144.48;100.00;62369.91;5073333;28;20461;-65
2022/08/21 01:10:26;;;;;;;74.18;34.90;;;;;;;-144.48;100.00;62369.91;5091349;28;20031;-68
2022/08/21 01:12:54;;;;;;;64.65;35.15;;;;;;;-144.48;100.00;62369.91;5091245;28;20097;-70
2022/08/21 01:15:23;;;;;;;71.43;33.92;;;;;;;-144.48;100.00;62369.91;5090551;28;20031;-70
2022/08/21 01:17:50;;;;;;;74.00;35.50;;;;;;;-144.48;100.00;62369.91;5071226;28;20024;-68
2022/08/21 01:20:16;;;;;;;69.28;35.85;;;;;;;-144.48;100.00;62369.91;5088963;28;20048;-71
2022/08/21 01:22:41;;;;;;;81.15;36.13;;;;;;;-144.48;100.00;62369.91;5090548;28;20021;-67
2022/08/21 01:25:09;;;;;;;66.82;34.53;;;;;;;-144.48;100.00;62369.91;5090642;28;20030;-68
2022/08/21 01:27:36;;;;;;;68.70;35.38;;;;;;;-144.48;100.00;62369.91;5090589;28;20056;-71
2022/08/21 01:30:10;;;;;;;72.10;36.35;;;;;;;-144.48;100.00;62369.91;5072275;28;20031;-67
2022/08/21 01:32:35;;;;;;;78.05;36.70;;;;;;;-144.48;100.00;62369.91;5054984;28;20020;-70
2022/08/21 01:35:02;;;;;;;67.35;33.80;;;;;;;-144.48;100.00;62369.91;5082494;28;20023;-71
2022/08/21 01:37:28;;;;;;;74.63;35.13;;;;;;;-144.48;100.00;62369.91;5071604;28;20489;-69
2022/08/21 01:39:53;;;;;;;72.80;36.55;;;;;;;-144.48;100.00;62369.91;5071537;28;20114;-68
2022/08/21 01:42:19;;;;;;;73.47;37.00;;;;;;;-144.48;100.00;62369.91;5088576;28;20032;-69
2022/08/21 01:44:44;;;;;;;68.38;33.33;;;;;;;-144.48;100.00;62369.91;5072071;28;20031;-70
2022/08/21 01:47:13;;;;;;;64.55;32.63;;;;;;;-144.48;100.00;62369.91;5090063;28;20093;-70
2022/08/21 01:49:39;;;;;;;;;;;;;;;-144.48;100.00;62369.91;5073080;28;20269;-67
2022/08/21 01:52:06;;;;;;;60.45;31.73;;;;;;;-144.48;100.00;62369.91;5068685;28;20007;-70
2022/08/21 01:54:32;;;;;;;66.75;32.20;;;;;;;-144.48;100.00;62369.91;5080209;28;20027;-68
2022/08/21 01:56:59;;;;;;;60.47;32.50;;;;;;;-144.48;100.00;62369.91;5060698;28;20085;-70
2022/08/21 01:59:25;;;;;;;60.75;29.92;;;;;;;-144.48;100.00;62369.91;5071604;28;20028;-71
2022/08/21 02:01:50;;;;;;;58.75;30.25;;;;;;;-144.48;100.00;62369.91;5071760;28;20027;-70
2022/08/21 02:04:16;;;;;;;53.70;29.23;;;;;;;-144.48;100.00;62369.91;5071996;28;20036;-71
2022/08/21 02:06:43;;;;;;;55.90;28.02;;;;;;;-144.48;100.00;62369.91;5088898;28;20116;-67
2022/08/21 02:09:11;;;;;;;56.42;27.30;;;;;;;-144.48;100.00;62369.91;5089588;28;20085;-68
2022/08/21 02:11:40;;;;;;;49.50;25.13;;;;;;;-144.48;100.00;62369.91;5072340;28;20081;-70
2022/08/21 02:14:06;;;;;;;;;;;;;;;-144.48;100.00;62369.91;5089524;28;20117;-70
2022/08/21 02:16:31;;;;;;;42.53;23.42;;;;;;;-144.48;100.00;62369.91;5069026;28;19920;-71
2022/08/21 02:18:56;;;;;;;46.20;23.48;;;;;;;-144.48;100.00;62369.91;5071075;28;20034;-70
2022/08/21 02:21:22;;;;;;;41.47;23.17;;;;;;;-144.48;100.00;62369.91;5089701;28;20405;-71
2022/08/21 02:23:47;;;;;;;43.38;21.70;;;;;;;-144.48;100.00;62369.91;5071107;28;20137;-70
2022/08/21 02:26:13;;;;;;;38.03;21.10;;;;;;;-144.48;100.00;62369.91;5071257;28;20095;-66
2022/08/21 02:28:39;;;;;;;38.75;21.83;;;;;;;-144.48;100.00;62369.91;5071564;28;20500;-68
2022/08/21 02:31:05;;;;;;;38.15;19.13;;;;;;;-144.48;100.00;62369.91;5088983;28;20019;-70
2022/08/21 02:33:31;;;;;;;44.72;20.70;;;;;;;-144.48;100.00;62369.91;5070800;28;20205;-69
2022/08/21 02:35:57;;;;;;;37.40;18.90;;;;;;;-144.48;100.00;62369.91;5071228;28;20035;-70
2022/08/21 02:38:26;;;;;;;42.40;20.95;;;;;;;-144.48;100.00;62369.91;5071406;28;20058;-66
2022/08/21 02:40:52;;;;;;;39.15;19.55;;;;;;;-144.48;100.00;62369.91;5089594;28;20020;-70
2022/08/21 02:43:21;;;;;;;37.20;19.17;;;;;;;-144.47;84.36;53499.66;5071098;28;20026;-70
2022/08/21 02:45:47;;;;;;;34.80;18.27;;;;;;;-144.48;100.00;62369.91;5071199;28;20024;-71
2022/08/21 02:48:16;;;;;;;33.30;18.30;;;;;;;-144.48;100.00;62369.91;5070866;28;20131;-66
2022/08/21 02:50:45;;;;;;;34.47;17.70;;;;;;;-144.48;100.00;62369.91;5071161;28;20020;-71
2022/08/21 02:53:16;;;;;;;37.03;17.50;;;;;;;-144.48;100.00;62369.91;5077133;28;20274;-70
2022/08/21 02:55:43;;;;;;;35.50;15.88;;;;;;;-144.48;100.00;62369.91;5070850;28;20138;-70
2022/08/21 02:58:09;;;;;;;34.50;15.55;;;;;;;-144.48;100.00;62369.91;5089191;28;20052;-69
2022/08/21 03:00:36;;;;;;;34.42;16.77;;;;;;;-144.48;100.00;62369.91;5076450;28;20063;-66
2022/08/21 03:03:03;;;;;;;35.75;15.52;;;;;;;-144.48;100.00;62369.91;5088761;28;20024;-69
2022/08/21 03:05:31;;;;;;;27.63;14.45;;;;;;;-144.48;100.00;62369.91;5062548;28;20082;-72
2022/08/21 03:07:58;;;;;;;32.90;15.83;;;;;;;-144.48;100.00;62369.91;5083505;28;20099;-70
2022/08/21 03:10:24;;;;;;;31.15;14.02;;;;;;;-144.48;100.00;62369.91;5089794;28;20326;-72
2022/08/21 03:12:50;;;;;;;25.75;14.13;;;;;;;-144.47;81.33;53491.72;5071283;28;20020;-72
2022/08/21 03:15:19;;;;;;;28.88;12.75;;;;;;;-144.48;100.00;62369.91;5089541;28;20042;-70
2022/08/21 03:17:45;;;;;;;27.70;12.88;;;;;;;-144.48;100.00;62369.91;5089000;28;20031;-70
2022/08/21 03:20:13;;;;;;;28.52;12.70;;;;;;;-144.48;100.00;62369.91;5089392;28;20032;-70
2022/08/21 03:22:39;;;;;;;27.27;11.80;;;;;;;-144.48;100.00;62369.91;5089324;28;20031;-73
2022/08/21 03:25:05;;;;;;;20.45;11.95;;;;;;;-144.48;100.00;62369.91;5071677;28;20024;-73
2022/08/21 03:27:31;;;;;;;30.33;15.02;;;;;;;-144.48;100.00;62369.91;5052275;28;20027;-73
2022/08/21 03:29:57;;;;;;;24.90;12.90;;;;;;;-144.48;100.00;62369.91;5089312;28;20111;-68
2022/08/21 03:32:23;;;;;;;31.20;13.80;;;;;;;-144.48;100.00;62369.91;5070638;28;20116;-68
2022/08/21 03:34:48;;;;;;;30.13;14.07;;;;;;;-144.48;100.00;62369.91;5050573;28;20556;-71
2022/08/21 03:37:14;;;;;;;32.17;14.45;;;;;;;-144.48;100.00;62369.91;5083311;28;20035;-71
2022/08/21 03:39:41;;;;;;;21.95;11.30;;;;;;;-144.48;100.00;62369.91;5070840;28;20020;-71
2022/08/21 03:42:07;;;;;;;29.60;13.20;;;;;;;-144.48;100.00;62369.91;5070898;28;20024;-68
2022/08/21 03:44:32;;;;;;;30.88;13.93;;;;;;;-144.48;100.00;62369.91;5073750;28;20031;-70
2022/08/21 03:46:58;;;;;;;24.88;11.82;;;;;;;-144.48;100.00;62369.91;5074323;28;20016;-71
2022/08/21 03:49:25;;;;;;;25.40;11.48;;;;;;;-144.48;100.00;62369.91;5057476;28;20028;-70
2022/08/21 03:51:50;;;;;;;28.05;11.43;;;;;;;-144.48;100.00;62369.91;5091100;28;20043;-70
2022/08/21 03:54:16;;;;;;;21.40;10.90;;;;;;;-144.48;100.00;62369.91;5037798;28;20059;-69
2022/08/21 03:56:42;;;;;;;20.25;10.55;;;;;;;-144.48;100.00;62369.91;5090361;28;20056;-68
2022/08/21 03:59:07;;;;;;;21.45;10.45;;;;;;;-144.48;100.00;62369.91;5074184;28;20020;-70
2022/08/21 04:01:34;;;;;;;23.30;10.00;;;;;;;-144.48;100.00;62369.91;5091848;28;20039;-71
2022/08/21 04:03:59;;;;;;;23.25;9.90;;;;;;;-144.48;100.00;62369.91;5067925;28;20033;-70
2022/08/21 04:06:26;;;;;;;23.23;9.57;;;;;;;-144.48;100.00;62369.91;5068576;28;20543;-67
2022/08/21 04:08:52;;;;;;;25.23;9.75;;;;;;;-144.48;100.00;62369.91;5074491;28;20028;-68
2022/08/21 04:11:18;;;;;;;32.58;9.98;;;;;;;-144.48;100.00;62369.91;5074568;28;20034;-69
2022/08/21 04:13:43;;;;;;;29.35;9.45;;;;;;;-144.48;100.00;62369.91;5092182;28;20028;-70
2022/08/21 04:16:09;;;;;;;22.58;8.98;;;;;;;-144.48;100.00;62369.91;5073617;28;20085;-70
2022/08/21 04:18:34;;;;;;;24.10;8.93;;;;;;;-144.48;100.00;62369.91;5073409;28;20032;-67
2022/08/21 04:21:01;;;;;;;22.95;8.85;;;;;;;-144.48;100.00;62369.91;5092026;28;20386;-69
2022/08/21 04:23:27;;;;;;;23.13;8.80;;;;;;;-144.48;100.00;62369.91;5073560;28;20028;-71
2022/08/21 04:25:55;;;;;;;19.00;8.50;;;;;;;-144.48;100.00;62369.91;5092186;28;20407;-70
2022/08/21 04:28:21;;;;;;;24.92;8.35;;;;;;;-144.48;100.00;62369.91;5091915;28;20039;-67
2022/08/21 04:30:47;;;;;;;22.23;8.50;;;;;;;-144.48;100.00;62369.91;5054326;28;20075;-71
2022/08/21 04:33:13;;;;;;;23.08;7.80;;;;;;;-144.48;100.00;62369.91;5095531;28;20020;-71
2022/08/21 04:35:39;;;;;;;22.23;8.75;;;;;;;-144.48;100.00;62369.91;5073755;28;20035;-70
2022/08/21 04:38:04;;;;;;;19.23;8.10;;;;;;;-144.47;77.29;53515.56;5091888;28;20028;-69
2022/08/21 04:40:29;;;;;;;24.65;7.97;;;;;;;-144.48;100.00;62369.91;5091581;28;20474;-70
2022/08/21 04:43:02;;;;;;;17.95;8.45;;;;;;;-144.48;100.00;62369.91;5091491;28;20117;-67
2022/08/21 04:45:37;;;;;;;22.95;8.27;;;;;;;-144.48;100.00;62369.91;5071272;28;20024;-70
2022/08/21 04:48:05;;;;;;;18.42;8.50;;;;;;;-144.48;100.00;62369.91;5090984;28;20024;-68
2022/08/21 04:50:54;;;;;;;14.55;6.45;;;;;;;-144.48;100.00;62369.91;5056847;28;20153;-70
2022/08/21 04:53:43;;;;;;;15.13;7.63;;;;;;;-144.48;100.00;62369.91;5070025;28;20528;-69
2022/08/21 04:56:12;;;;;;;17.75;6.90;;;;;;;-144.48;100.00;62369.91;5090542;28;20048;-71
2022/08/21 04:58:39;;;;;;;16.65;7.10;;;;;;;-144.48;100.00;62369.91;5090639;28;20046;-71
2022/08/21 05:01:08;;;;;;;17.83;8.32;;;;;;;-144.48;100.00;62369.91;5087278;28;20047;-70
2022/08/21 05:03:36;;;;;;;19.15;6.60;;;;;;;-144.48;100.00;62369.91;5088211;28;20027;-69
2022/08/21 05:06:06;;;;;;;17.33;6.50;;;;;;;-144.48;100.00;62369.91;5053276;28;20067;-72
2022/08/21 05:08:33;;;;;;;22.85;8.20;;;;;;;-144.48;100.00;62369.91;5071094;28;20118;-71
2022/08/21 05:10:59;;;;;;;29.73;8.00;;;;;;;-144.48;100.00;62369.91;5056398;28;20028;-71
2022/08/21 05:13:25;;;;;;;14.43;7.15;;;;;;;-144.48;100.00;62369.91;5087422;28;20039;-67
2022/08/21 05:15:50;;;;;;;18.67;7.63;;;;;;;-144.48;100.00;62369.91;5053315;28;20111;-68
2022/08/21 05:18:16;;;;;;;17.52;7.65;;;;;;;-144.48;100.00;62369.91;5088683;28;20047;-71
2022/08/21 05:20:41;;;;;;;23.92;8.52;;;;;;;-144.48;100.00;62369.91;5091179;28;20035;-72
2022/08/21 05:23:13;;;;;;;19.02;8.55;;;;;;;-144.47;76.36;53525.50;5072675;28;20165;-71
2022/08/21 05:25:39;;;;;;;20.60;7.97;;;;;;;-144.48;100.00;62369.91;5073187;28;20052;-70
2022/08/21 05:28:05;;;;;;;17.42;7.22;;;;;;;-144.47;74.75;53545.34;5026557;28;20059;-72
2022/08/21 05:30:30;;;;;;;19.65;8.40;;;;;;;-144.48;100.00;62369.91;5089351;28;20024;-72
2022/08/21 05:32:58;;;;;;;16.38;7.97;;;;;;;-144.48;100.00;62369.91;5074077;28;20026;-69
2022/08/21 05:35:23;;;;;;;28.70;8.38;;;;;;;-144.48;100.00;62369.91;5087541;28;20085;-70
2022/08/21 05:37:49;;;;;;;17.63;7.40;;;;;;;-144.48;100.00;62369.91;5086056;28;20066;-71
2022/08/21 05:40:14;;;;;;;23.20;7.35;;;;;;;-144.48;100.00;62369.91;5090860;28;20027;-68
2022/08/21 05:42:39;;;;;;;19.80;7.60;;;;;;;-144.47;74.21;53487.75;5090651;28;20020;-70
2022/08/21 05:45:05;;;;;;;16.02;7.38;;;;;;;-144.48;100.00;62369.91;5090548;28;20571;-67
2022/08/21 05:47:30;;;;;;;15.52;7.00;;;;;;;-144.48;100.00;62369.91;5090783;28;20042;-65
2022/08/21 05:49:56;;;;;;;15.63;7.80;;;;;;;-144.48;100.00;62369.91;5090374;28;20086;-67
2022/08/21 05:52:22;;;;;;;17.13;7.13;;;;;;;-144.48;100.00;62369.91;5077196;28;20044;-68
2022/08/21 05:54:47;;;;;;;21.77;7.20;;;;;;;-144.48;100.00;62369.91;5089276;28;20050;-68
2022/08/21 05:57:13;;;;;;;17.92;6.57;;;;;;;-144.48;100.00;62369.91;5070919;28;20032;-67
2022/08/21 05:59:38;;;;;;;16.90;6.68;;;;;;;-144.48;100.00;62369.91;5089569;28;20539;-70
2022/08/21 06:02:04;;;;;;;20.08;7.47;;;;;;;-144.48;100.00;62369.91;5089974;28;20070;-71
2022/08/21 06:04:29;;;;;;;20.88;7.57;;;;;;;-144.48;100.00;62369.91;5089394;28;20020;-69
2022/08/21 06:06:55;;;;;;;20.05;8.98;;;;;;;-144.48;100.00;62369.91;5070623;28;20031;-67
2022/08/21 06:09:20;;;;;;;21.65;8.35;;;;;;;-144.48;100.00;62369.91;5071662;28;20028;-69
2022/08/21 06:11:46;;;;;;;18.92;8.35;;;;;;;-144.48;100.00;62369.91;5071437;28;20043;-70
2022/08/21 06:14:14;;;;;;;17.33;8.02;;;;;;;-144.48;100.00;62369.91;5070801;28;20056;-70
2022/08/21 06:16:40;;;;;;;21.42;7.82;;;;;;;-144.48;100.00;62369.91;5071296;28;20035;-68
2022/08/21 06:19:05;;;;;;;22.52;7.72;;;;;;;-144.48;100.00;62369.91;5070983;28;20032;-70
2022/08/21 06:21:31;;;;;;;17.38;7.85;;;;;;;-144.48;100.00;62369.91;5071751;28;20435;-70
2022/08/21 06:23:56;;;;;;;17.52;7.57;;;;;;;-144.48;100.00;62369.91;5071079;28;20030;-69
2022/08/21 06:26:23;;;;;;;21.50;6.80;;;;;;;-144.48;100.00;62369.91;5089417;28;20508;-70
2022/08/21 06:28:49;;;;;;;27.77;8.18;;;;;;;-144.48;100.00;62369.91;5076160;28;20086;-68
2022/08/21 06:31:17;;;;;;;15.32;7.15;;;;;;;-144.47;72.20;53507.59;5089150;28;20107;-70
2022/08/21 06:33:43;;;;;;;21.65;7.45;;;;;;;-144.47;72.85;53499.66;5091113;28;20038;-69
2022/08/21 06:36:09;;;;;;;16.05;6.82;;;;;;;-144.48;100.00;62369.91;5051559;28;20482;-71
2022/08/21 06:38:35;;;;;;;17.13;7.43;;;;;;;-144.48;100.00;62369.91;5047015;28;20543;-68
2022/08/21 06:41:00;;;;;;;15.95;6.40;;;;;;;-144.47;71.91;53533.44;5059822;28;20028;-68
2022/08/21 06:43:26;;;;;;;18.00;6.20;;;;;;;-144.48;100.00;62369.91;5084446;22;20450;-68
2022/08/21 06:45:51;;;;;;;20.38;6.43;;;;;;;-144.48;100.00;62369.91;5051116;28;20529;-69
2022/08/21 06:48:16;;;;;;;13.82;5.68;;;;;;;-144.48;100.00;62369.91;5069056;28;20028;-67
2022/08/21 06:50:42;;;;;;;18.05;6.15;;;;;;;-144.48;100.00;62369.91;5050874;28;20025;-67
2022/08/21 06:53:11;;;;;;;20.42;6.45;;;;;;;-144.47;69.90;53531.44;5030857;28;20375;-69
2022/08/21 06:55:37;;;;;;;12.88;6.38;;;;;;;-144.48;100.00;62369.91;5068123;28;20024;-69
2022/08/21 06:58:03;;;;;;;12.60;5.38;;;;;;;-144.48;100.00;62369.91;5063336;28;20120;-67
2022/08/21 07:00:29;;;;;;;25.05;6.82;;;;;;;-144.48;100.00;62369.91;5067386;28;20111;-67
2022/08/21 07:02:54;;;;;;;18.02;6.30;;;;;;;-144.48;100.00;62369.91;5039886;28;20023;-65
2022/08/21 07:05:20;;;;;;;20.88;5.57;;;;;;;-144.48;100.00;62369.91;5042766;28;20379;-67
2022/08/21 07:07:46;;;;;;;18.20;6.05;;;;;;;-144.48;100.00;62369.91;5024008;28;20017;-66
2022/08/21 07:10:12;;;;;;;16.17;5.93;;;;;;;-144.47;66.49;53450.00;5034578;28;20489;-67
2022/08/21 07:12:37;;;;;;;17.77;5.20;;;;;;;-144.48;100.00;62369.91;5031563;28;20025;-68
2022/08/21 07:15:04;;;;;;;18.33;6.20;;;;;;;-144.48;100.00;62369.91;5018375;28;20097;-66
2022/08/21 07:17:29;;;;;;;12.57;5.72;;;;;;;-144.48;100.00;62369.91;5052408;28;20045;-69
2022/08/21 07:19:54;;;;;;;13.15;5.47;;;;;;;-144.48;100.00;62369.91;5054523;28;20060;-67
2022/08/21 07:22:20;;;;;;;11.68;4.60;;;;;;;-144.47;65.16;53463.91;5054150;28;20364;-67
2022/08/21 07:24:46;;;;;;;14.57;4.90;;;;;;;-144.47;65.16;53527.47;5024599;28;20067;-67
2022/08/21 07:27:12;;;;;;;18.05;5.35;;;;;;;-144.48;100.00;62369.91;5034751;28;20036;-68
2022/08/21 07:29:37;;;;;;;15.85;5.13;;;;;;;-144.47;63.15;53463.91;5025381;28;20480;-64
2022/08/21 07:32:04;;;;;;;20.02;5.18;;;;;;;-144.48;100.00;62369.91;5040545;28;20012;-66
2022/08/21 07:34:29;;;;;;;17.17;4.70;;;;;;;-144.48;100.00;62369.91;5048261;28;20025;-65
2022/08/21 07:36:55;;;;;;;16.13;4.85;;;;;;;-144.47;63.40;53452.00;5061072;28;20028;-69
2022/08/21 07:39:20;;;;;;;15.00;4.47;;;;;;;-144.48;100.00;62369.91;5037573;28;20024;-65
2022/08/21 07:41:46;;;;;;;15.10;4.80;;;;;;;-144.48;100.00;62369.91;5047575;28;20016;-67
2022/08/21 07:44:11;;;;;;;15.73;4.78;;;;;;;-144.48;100.00;62369.91;5052293;28;20041;-66
2022/08/21 07:46:37;;;;;;;19.92;4.47;;;;;;;-144.47;61.59;53455.97;5052687;28;20031;-66
2022/08/21 07:49:02;;;;;;;20.70;4.75;;;;;;;-144.48;100.00;62369.91;5044188;28;20032;-67
2022/08/21 07:51:28;;;;;;;15.00;4.13;;;;;;;-144.48;100.00;62369.91;5052685;28;20108;-67
2022/08/21 07:53:56;;;;;;;14.00;4.95;;;;;;;-144.48;100.00;62369.91;5053107;28;20067;-67
2022/08/21 07:56:22;;;;;;;18.88;4.97;;;;;;;-144.48;100.00;62369.91;5069092;28;20028;-65
2022/08/21 07:58:48;;;;;;;14.45;4.63;;;;;;;-144.47;63.24;53473.84;5044957;28;20138;-67
2022/08/21 08:01:14;;;;;;;22.23;4.43;;;;;;;-144.48;100.00;62369.91;5046837;28;20116;-68
2022/08/21 08:03:39;;;;;;;9.07;3.85;;;;;;;-144.48;100.00;62369.91;5063905;28;20051;-67
2022/08/21 08:06:06;;;;;;;15.35;4.60;;;;;;;-144.48;100.00;62369.91;5061754;28;20485;-67
2022/08/21 08:08:32;;;;;;;15.77;4.40;;;;;;;-144.48;100.00;62369.91;5068419;28;20020;-68
2022/08/21 08:10:58;;;;;;;16.60;4.05;;;;;;;-144.48;100.00;62369.91;5070375;28;20039;-69
2022/08/21 08:13:24;;;;;;;12.95;4.45;;;;;;;-144.47;60.21;53455.97;5060003;28;20387;-67
2022/08/21 08:15:50;;;;;;;10.48;3.42;;;;;;;-144.48;100.00;62369.91;5045917;28;20048;-69
2022/08/21 08:18:15;;;;;;;12.13;3.80;;;;;;;-144.47;58.33;53455.97;5069249;28;20461;-67
2022/08/21 08:20:41;;;;;;;14.43;3.42;;;;;;;-144.48;100.00;62369.91;5063998;28;20028;-68
2022/08/21 08:23:10;;;;;;;13.43;4.03;;;;;;;-144.48;100.00;62369.91;5045665;28;20025;-67
2022/08/21 08:25:35;;;;;;;12.13;3.65;;;;;;;-144.47;58.11;53465.91;5070773;28;20493;-69
2022/08/21 08:28:00;;;;;;;11.50;3.55;;;;;;;-144.47;57.86;53461.91;5065581;28;20032;-68
2022/08/21 08:30:26;;;;;;;12.70;3.88;;;;;;;-144.48;100.00;62369.91;5066812;28;20055;-69
2022/08/21 08:32:51;;;;;;;15.85;3.90;;;;;;;-144.48;100.00;62369.91;5048830;28;20459;-68
2022/08/21 08:35:17;;;;;;;16.23;3.50;;;;;;;-144.48;100.00;62369.91;5059772;28;20048;-67
2022/08/21 08:37:45;;;;;;;18.40;3.92;;;;;;;-144.47;57.34;53426.16;5062931;28;20159;-70
2022/08/21 08:40:31;;;;;;;15.33;4.23;;;;;;;-144.48;100.00;62369.91;5069030;28;20020;-67
2022/08/21 08:42:57;;;;;;;13.02;3.22;;;;;;;-144.48;100.00;62369.91;5051516;28;20088;-71
2022/08/21 08:45:25;;;;;;;11.52;3.13;;;;;;;-144.47;56.28;53446.03;5069883;28;20497;-68
2022/08/21 08:47:58;;;;;;;12.65;3.47;;;;;;;-144.47;55.99;53434.09;5068262;28;20032;-70
2022/08/21 08:50:33;;;;;;;12.50;3.65;;;;;;;-144.47;56.44;53455.97;5060260;28;20037;-66
2022/08/21 08:53:05;;;;;;;14.32;3.40;;;;;;;-144.47;55.63;53436.09;5031250;28;20028;-67
2022/08/21 08:55:40;;;;;;;13.15;3.55;;;;;;;-144.47;55.05;53452.00;5067733;28;20012;-68
2022/08/21 08:58:06;;;;;;;20.83;3.53;;;;;;;-144.47;55.05;53452.00;5063562;28;20500;-67
2022/08/21 09:00:33;;;;;;;14.82;3.00;;;;;;;-144.47;56.10;53402.31;5064874;28;20024;-66
2022/08/21 09:03:02;;;;;;;16.38;3.50;;;;;;;-144.48;100.00;62369.91;5066528;28;20012;-65
2022/08/21 09:05:48;;;;;;;14.38;3.75;;;;;;;-144.47;53.55;53426.16;5067513;28;20397;-65
2022/08/21 09:08:48;;;;;;;13.50;3.28;;;;;;;-144.48;100.00;62369.91;5052465;28;20051;-67
2022/08/21 09:11:28;;;;;;;13.25;2.97;;;;;;;-144.47;52.87;53424.19;5063464;28;20021;-66
2022/08/21 09:14:02;;;;;;;9.63;2.80;;;;;;;-144.47;51.80;53420.22;5065686;28;20016;-65
2022/08/21 09:16:46;;;;;;;25.08;3.90;;;;;;;-144.48;100.00;62369.91;5064241;28;20115;-66
2022/08/21 09:19:26;;;;;;;10.77;2.65;;;;;;;-144.47;50.06;53412.25;5062961;28;20381;-65
2022/08/21 09:22:13;;;;;;;14.50;3.22;;;;;;;-144.48;100.00;62369.91;5047554;28;20020;-66
2022/08/21 09:25:08;;;;;;;6.68;2.20;;;;;;;-144.48;100.00;62369.91;5063188;28;20029;-67
2022/08/21 09:27:35;;;;;;;14.43;2.47;;;;;;;-144.47;47.27;53382.47;5062796;28;20623;-67
2022/08/21 09:30:01;;;;;;;11.27;3.03;;;;;;;-144.47;47.63;53428.16;5069152;28;20016;-66
2022/08/21 09:32:31;;;;;;;22.23;3.45;;;;;;;-144.48;100.00;62369.91;5068949;28;20040;-65
2022/08/21 09:35:03;;;;;;;;;;;;;;;-144.48;100.00;62369.91;5066177;28;20060;-67
2022/08/21 09:37:30;;;;;;;9.20;2.10;;;;;;;-144.48;100.00;62369.91;5069229;28;19908;-67
2022/08/21 09:39:58;;;;;;;13.03;2.60;;;;;;;-144.48;100.00;62369.91;5068192;28;20039;-68
2022/08/21 09:42:27;;;;;;;12.35;2.25;;;;;;;-144.47;45.28;53336.78;5068151;28;20304;-67
2022/08/21 09:45:17;;;;;;;7.47;2.17;;;;;;;-144.48;100.00;62369.91;5068243;28;20040;-68
2022/08/21 09:47:45;;;;;;;9.73;2.60;;;;;;;-144.48;100.00;62369.91;5062603;28;20167;-66
2022/08/21 09:50:18;;;;;;;12.17;2.10;;;;;;;-144.47;43.32;53382.47;5062648;28;20035;-68
2022/08/21 09:53:04;;;;;;;14.00;2.75;;;;;;;-144.47;43.44;53344.72;5051065;28;20031;-68
2022/08/21 09:58:20;;;;;;;9.60;2.38;;;;;;;-144.47;42.89;53358.63;5068579;28;20082;-65
2022/08/21 10:00:55;;;;;;;7.53;1.92;;;;;;;-144.47;42.22;53344.72;5058108;28;20443;-65
2022/08/21 10:03:24;;;;;;;10.70;2.50;;;;;;;-144.47;41.95;53398.34;5068365;28;20409;-67
2022/08/21 10:06:05;;;;;;;15.05;2.38;;;;;;;-144.47;42.67;53404.31;5050034;28;20103;-66
2022/08/21 10:08:32;;;;;;;10.00;2.33;;;;;;;-144.47;42.78;53396.38;5068528;28;20020;-65
2022/08/21 10:11:24;;;;;;;7.35;2.38;;;;;;;-144.47;42.84;53384.44;5068344;28;20046;-65
2022/08/21 10:14:18;;;;;;;10.38;2.42;;;;;;;-144.48;100.00;62369.91;5067275;28;20043;-66
2022/08/21 10:16:52;;;;;;;10.50;2.38;;;;;;;-144.47;41.60;53382.47;5068930;28;20016;-65
2022/08/21 10:19:31;;;;;;;8.25;2.08;;;;;;;-144.47;42.37;53408.28;5068906;28;20021;-69
2022/08/21 10:22:18;;;;;;;7.90;1.98;;;;;;;-144.47;42.72;53384.44;5048504;28;20025;-65
2022/08/21 10:24:52;;;;;;;11.68;2.55;;;;;;;-144.47;42.30;53356.63;5056432;28;20050;-67
2022/08/21 10:27:31;;;;;;;15.43;2.47;;;;;;;-144.47;42.62;53372.53;5048190;28;20536;-67
2022/08/21 10:30:03;;;;;;;12.88;2.42;;;;;;;-144.48;100.00;62369.91;5061321;28;20036;-67
2022/08/21 10:32:47;;;;;;;11.73;2.42;;;;;;;-144.47;41.93;53380.47;5065130;28;20039;-67
2022/08/21 10:35:33;;;;;;;9.88;2.00;;;;;;;-144.47;41.56;53358.63;5048178;28;20063;-65
2022/08/21 10:38:17;;;;;;;11.05;2.50;;;;;;;-144.47;41.80;53384.44;5031661;28;20112;-68
2022/08/21 10:40:50;;;;;;;10.52;2.13;;;;;;;-144.47;41.53;53390.41;5066840;28;20020;-66
2022/08/21 10:43:40;;;;;;;10.13;1.95;;;;;;;-144.47;41.94;53412.25;5065116;28;20494;-66
2022/08/21 10:46:33;;;;;;;9.32;2.00;;;;;;;-144.47;41.94;53372.53;5050778;28;20028;-67
2022/08/21 10:49:11;;;;;;;12.95;2.25;;;;;;;-144.47;41.72;53360.63;5047150;28;20017;-65
2022/08/21 10:51:47;;;;;;;7.03;1.75;;;;;;;-144.47;41.75;53346.72;5064442;28;20033;-66
2022/08/21 10:54:46;;;;;;;6.30;2.30;;;;;;;-144.47;41.97;53384.44;5045845;28;20449;-66
2022/08/21 10:57:21;;;;;;;6.10;1.88;;;;;;;-144.47;41.70;53400.34;5058992;28;20036;-67
2022/08/21 10:59:54;;;;;;;12.55;1.95;;;;;;;-144.47;41.34;53338.75;5066326;28;20621;-67
2022/08/21 11:02:30;;;;;;;5.90;2.03;;;;;;;-144.47;40.85;53362.59;5046493;28;20024;-69
2022/08/21 11:05:10;;;;;;;12.00;2.50;;;;;;;-144.47;40.31;53380.47;5053238;28;20032;-69
2022/08/21 11:07:45;;;;;;;12.02;2.13;;;;;;;-144.47;41.13;53362.59;5058642;28;20405;-68
2022/08/21 11:10:20;;;;;;;9.73;2.45;;;;;;;-144.47;40.26;53314.91;5040895;28;20032;-67
2022/08/21 11:13:13;;;;;;;9.90;2.42;;;;;;;-144.47;41.00;53386.44;5057551;28;20035;-66